sensor_id;sensor_type;location;lat;lon;timestamp;P1;durP1;ratioP1;P2;durP2;ratioP2
13805;SDS011;6974;53.606;9.872;2023-04-15T00:00:20;5.30;;;4.80;;
13805;SDS011;6974;53.606;9.872;2023-04-15T00:02:48;5.03;;;4.53;;
13805;SDS011;6974;53.606;9.872;2023-04-15T00:05:15;5.33;;;4.70;;
13805;SDS011;6974;53.606;9.872;2023-04-15T00:07:44;5.03;;;4.57;;
13805;SDS011;6974;53.606;9.872;2023-04-15T00:10:11;4.83;;;4.33;;
13805;SDS011;6974;53.606;9.872;2023-04-15T00:12:39;5.13;;;4.50;;
13805;SDS011;6974;53.606;9.872;2023-04-15T00:15:07;4.87;;;4.23;;
13805;SDS011;6974;53.606;9.872;2023-04-15T00:17:36;5.27;;;4.77;;
13805;SDS011;6974;53.606;9.872;2023-04-15T00:20:05;5.07;;;4.57;;
13805;SDS011;6974;53.606;9.872;2023-04-15T00:22:34;5.50;;;4.50;;
13805;SDS011;6974;53.606;9.872;2023-04-15T00:25:03;4.83;;;4.43;;
13805;SDS011;6974;53.606;9.872;2023-04-15T00:27:31;5.00;;;4.23;;
13805;SDS011;6974;53.606;9.872;2023-04-15T00:30:00;5.07;;;4.57;;
13805;SDS011;6974;53.606;9.872;2023-04-15T00:32:28;5.10;;;4.60;;
13805;SDS011;6974;53.606;9.872;2023-04-15T00:34:55;5.53;;;4.60;;
13805;SDS011;6974;53.606;9.872;2023-04-15T00:37:22;6.80;;;5.10;;
13805;SDS011;6974;53.606;9.872;2023-04-15T00:39:49;5.73;;;5.20;;
13805;SDS011;6974;53.606;9.872;2023-04-15T00:42:18;5.17;;;4.77;;
13805;SDS011;6974;53.606;9.872;2023-04-15T00:44:45;5.40;;;4.90;;
13805;SDS011;6974;53.606;9.872;2023-04-15T00:47:13;6.00;;;5.50;;
13805;SDS011;6974;53.606;9.872;2023-04-15T00:49:40;5.67;;;5.17;;
13805;SDS011;6974;53.606;9.872;2023-04-15T00:52:07;5.73;;;5.23;;
13805;SDS011;6974;53.606;9.872;2023-04-15T00:54:35;6.50;;;5.50;;
13805;SDS011;6974;53.606;9.872;2023-04-15T00:57:04;6.40;;;5.80;;
13805;SDS011;6974;53.606;9.872;2023-04-15T00:59:32;6.57;;;5.97;;
13805;SDS011;6974;53.606;9.872;2023-04-15T01:02:01;6.70;;;6.10;;
13805;SDS011;6974;53.606;9.872;2023-04-15T01:04:28;6.80;;;6.07;;
13805;SDS011;6974;53.606;9.872;2023-04-15T01:06:56;6.50;;;5.77;;
13805;SDS011;6974;53.606;9.872;2023-04-15T01:09:23;7.10;;;6.47;;
13805;SDS011;6974;53.606;9.872;2023-04-15T01:11:51;7.30;;;6.60;;
13805;SDS011;6974;53.606;9.872;2023-04-15T01:14:18;7.57;;;6.83;;
13805;SDS011;6974;53.606;9.872;2023-04-15T01:16:48;7.20;;;6.50;;
13805;SDS011;6974;53.606;9.872;2023-04-15T01:19:16;7.47;;;6.60;;
13805;SDS011;6974;53.606;9.872;2023-04-15T01:21:43;7.53;;;6.83;;
13805;SDS011;6974;53.606;9.872;2023-04-15T01:24:11;7.50;;;6.80;;
13805;SDS011;6974;53.606;9.872;2023-04-15T01:26:42;8.97;;;7.47;;
13805;SDS011;6974;53.606;9.872;2023-04-15T01:29:10;7.77;;;7.00;;
13805;SDS011;6974;53.606;9.872;2023-04-15T01:31:38;7.70;;;7.00;;
13805;SDS011;6974;53.606;9.872;2023-04-15T01:34:05;7.43;;;6.73;;
13805;SDS011;6974;53.606;9.872;2023-04-15T01:36:32;8.37;;;7.57;;
13805;SDS011;6974;53.606;9.872;2023-04-15T01:39:00;7.53;;;6.83;;
13805;SDS011;6974;53.606;9.872;2023-04-15T01:41:29;7.60;;;6.90;;
13805;SDS011;6974;53.606;9.872;2023-04-15T01:43:59;8.23;;;7.43;;
13805;SDS011;6974;53.606;9.872;2023-04-15T01:46:26;8.47;;;7.63;;
13805;SDS011;6974;53.606;9.872;2023-04-15T01:48:53;7.90;;;7.13;;
13805;SDS011;6974;53.606;9.872;2023-04-15T01:51:21;7.70;;;7.00;;
13805;SDS011;6974;53.606;9.872;2023-04-15T01:53:48;7.87;;;6.77;;
13805;SDS011;6974;53.606;9.872;2023-04-15T01:56:16;7.63;;;6.53;;
13805;SDS011;6974;53.606;9.872;2023-04-15T01:58:43;7.73;;;7.03;;
13805;SDS011;6974;53.606;9.872;2023-04-15T02:01:12;7.60;;;6.90;;
13805;SDS011;6974;53.606;9.872;2023-04-15T02:03:40;7.93;;;7.13;;
13805;SDS011;6974;53.606;9.872;2023-04-15T02:06:08;7.67;;;6.80;;
13805;SDS011;6974;53.606;9.872;2023-04-15T02:08:35;7.73;;;6.93;;
13805;SDS011;6974;53.606;9.872;2023-04-15T02:11:02;7.63;;;6.93;;
13805;SDS011;6974;53.606;9.872;2023-04-15T02:13:29;7.40;;;6.70;;
13805;SDS011;6974;53.606;9.872;2023-04-15T02:15:57;7.80;;;7.00;;
13805;SDS011;6974;53.606;9.872;2023-04-15T02:18:26;7.37;;;6.67;;
13805;SDS011;6974;53.606;9.872;2023-04-15T02:20:53;6.83;;;6.23;;
13805;SDS011;6974;53.606;9.872;2023-04-15T02:23:21;6.67;;;6.07;;
13805;SDS011;6974;53.606;9.872;2023-04-15T02:25:48;6.80;;;6.10;;
13805;SDS011;6974;53.606;9.872;2023-04-15T02:28:15;6.90;;;6.27;;
13805;SDS011;6974;53.606;9.872;2023-04-15T02:30:42;7.27;;;6.57;;
13805;SDS011;6974;53.606;9.872;2023-04-15T02:33:17;6.70;;;6.10;;
13805;SDS011;6974;53.606;9.872;2023-04-15T02:35:45;6.73;;;6.13;;
13805;SDS011;6974;53.606;9.872;2023-04-15T02:38:12;7.27;;;6.57;;
13805;SDS011;6974;53.606;9.872;2023-04-15T02:40:41;7.37;;;6.67;;
13805;SDS011;6974;53.606;9.872;2023-04-15T02:43:08;6.83;;;6.20;;
13805;SDS011;6974;53.606;9.872;2023-04-15T02:45:35;7.90;;;7.20;;
13805;SDS011;6974;53.606;9.872;2023-04-15T02:48:03;7.23;;;6.60;;
13805;SDS011;6974;53.606;9.872;2023-04-15T02:50:30;7.30;;;6.60;;
13805;SDS011;6974;53.606;9.872;2023-04-15T02:52:59;7.90;;;7.13;;
13805;SDS011;6974;53.606;9.872;2023-04-15T02:55:27;7.53;;;6.70;;
13805;SDS011;6974;53.606;9.872;2023-04-15T02:57:54;8.03;;;7.27;;
13805;SDS011;6974;53.606;9.872;2023-04-15T03:00:23;7.93;;;7.23;;
13805;SDS011;6974;53.606;9.872;2023-04-15T03:02:50;9.43;;;6.97;;
13805;SDS011;6974;53.606;9.872;2023-04-15T03:05:20;7.90;;;7.10;;
13805;SDS011;6974;53.606;9.872;2023-04-15T03:07:49;8.63;;;7.83;;
13805;SDS011;6974;53.606;9.872;2023-04-15T03:10:18;8.57;;;7.77;;
13805;SDS011;6974;53.606;9.872;2023-04-15T03:12:45;8.63;;;7.83;;
13805;SDS011;6974;53.606;9.872;2023-04-15T03:15:12;7.47;;;6.77;;
13805;SDS011;6974;53.606;9.872;2023-04-15T03:17:40;8.77;;;7.93;;
13805;SDS011;6974;53.606;9.872;2023-04-15T03:20:08;9.10;;;8.20;;
13805;SDS011;6974;53.606;9.872;2023-04-15T03:22:35;8.60;;;7.80;;
13805;SDS011;6974;53.606;9.872;2023-04-15T03:25:03;9.20;;;8.30;;
13805;SDS011;6974;53.606;9.872;2023-04-15T03:27:32;9.73;;;8.67;;
13805;SDS011;6974;53.606;9.872;2023-04-15T03:29:59;10.13;;;9.13;;
13805;SDS011;6974;53.606;9.872;2023-04-15T03:32:27;9.93;;;8.87;;
13805;SDS011;6974;53.606;9.872;2023-04-15T03:34:54;10.33;;;9.23;;
13805;SDS011;6974;53.606;9.872;2023-04-15T03:37:21;9.30;;;8.40;;
13805;SDS011;6974;53.606;9.872;2023-04-15T03:39:48;10.53;;;9.43;;
13805;SDS011;6974;53.606;9.872;2023-04-15T03:42:16;10.90;;;9.80;;
13805;SDS011;6974;53.606;9.872;2023-04-15T03:44:44;11.23;;;10.10;;
13805;SDS011;6974;53.606;9.872;2023-04-15T03:47:13;11.93;;;10.73;;
13805;SDS011;6974;53.606;9.872;2023-04-15T03:49:40;11.63;;;9.97;;
13805;SDS011;6974;53.606;9.872;2023-04-15T03:52:06;11.40;;;10.13;;
13805;SDS011;6974;53.606;9.872;2023-04-15T03:54:34;11.80;;;10.60;;
13805;SDS011;6974;53.606;9.872;2023-04-15T03:57:01;12.20;;;10.90;;
13805;SDS011;6974;53.606;9.872;2023-04-15T03:59:28;12.83;;;11.53;;
13805;SDS011;6974;53.606;9.872;2023-04-15T04:01:57;15.20;;;12.27;;
13805;SDS011;6974;53.606;9.872;2023-04-15T04:04:24;14.53;;;12.37;;
13805;SDS011;6974;53.606;9.872;2023-04-15T04:06:52;14.93;;;13.07;;
13805;SDS011;6974;53.606;9.872;2023-04-15T04:09:19;17.27;;;13.03;;
13805;SDS011;6974;53.606;9.872;2023-04-15T04:11:46;15.80;;;13.73;;
13805;SDS011;6974;53.606;9.872;2023-04-15T04:14:13;16.00;;;13.43;;
13805;SDS011;6974;53.606;9.872;2023-04-15T04:16:41;14.70;;;13.20;;
13805;SDS011;6974;53.606;9.872;2023-04-15T04:19:10;15.47;;;13.53;;
13805;SDS011;6974;53.606;9.872;2023-04-15T04:21:38;17.00;;;14.07;;
13805;SDS011;6974;53.606;9.872;2023-04-15T04:24:06;16.37;;;14.17;;
13805;SDS011;6974;53.606;9.872;2023-04-15T04:26:33;16.67;;;13.87;;
13805;SDS011;6974;53.606;9.872;2023-04-15T04:28:59;15.97;;;13.83;;
13805;SDS011;6974;53.606;9.872;2023-04-15T04:31:26;17.07;;;14.27;;
13805;SDS011;6974;53.606;9.872;2023-04-15T04:33:54;16.07;;;13.97;;
13805;SDS011;6974;53.606;9.872;2023-04-15T04:36:22;17.50;;;14.73;;
13805;SDS011;6974;53.606;9.872;2023-04-15T04:38:50;17.00;;;14.83;;
13805;SDS011;6974;53.606;9.872;2023-04-15T04:41:17;17.77;;;15.30;;
13805;SDS011;6974;53.606;9.872;2023-04-15T04:43:44;17.83;;;14.27;;
13805;SDS011;6974;53.606;9.872;2023-04-15T04:46:11;19.17;;;15.53;;
13805;SDS011;6974;53.606;9.872;2023-04-15T04:48:38;16.80;;;14.53;;
13805;SDS011;6974;53.606;9.872;2023-04-15T04:51:05;18.57;;;15.30;;
13805;SDS011;6974;53.606;9.872;2023-04-15T04:53:34;19.67;;;16.27;;
13805;SDS011;6974;53.606;9.872;2023-04-15T04:56:02;20.50;;;16.80;;
13805;SDS011;6974;53.606;9.872;2023-04-15T04:58:30;17.10;;;15.30;;
13805;SDS011;6974;53.606;9.872;2023-04-15T05:00:57;21.73;;;17.47;;
13805;SDS011;6974;53.606;9.872;2023-04-15T05:03:24;20.10;;;17.47;;
13805;SDS011;6974;53.606;9.872;2023-04-15T05:05:51;20.37;;;17.00;;
13805;SDS011;6974;53.606;9.872;2023-04-15T05:08:18;22.77;;;18.80;;
13805;SDS011;6974;53.606;9.872;2023-04-15T05:10:47;22.47;;;19.07;;
13805;SDS011;6974;53.606;9.872;2023-04-15T05:13:14;23.37;;;18.63;;
13805;SDS011;6974;53.606;9.872;2023-04-15T05:15:41;25.77;;;19.83;;
13805;SDS011;6974;53.606;9.872;2023-04-15T05:18:08;23.07;;;18.97;;
13805;SDS011;6974;53.606;9.872;2023-04-15T05:20:35;23.60;;;18.57;;
13805;SDS011;6974;53.606;9.872;2023-04-15T05:23:03;23.43;;;18.67;;
13805;SDS011;6974;53.606;9.872;2023-04-15T05:25:30;23.50;;;17.93;;
13805;SDS011;6974;53.606;9.872;2023-04-15T05:27:59;26.87;;;20.73;;
13805;SDS011;6974;53.606;9.872;2023-04-15T05:30:28;22.43;;;18.60;;
13805;SDS011;6974;53.606;9.872;2023-04-15T05:32:55;24.77;;;19.57;;
13805;SDS011;6974;53.606;9.872;2023-04-15T05:35:22;25.97;;;20.17;;
13805;SDS011;6974;53.606;9.872;2023-04-15T05:37:49;24.50;;;19.60;;
13805;SDS011;6974;53.606;9.872;2023-04-15T05:40:16;23.03;;;19.27;;
13805;SDS011;6974;53.606;9.872;2023-04-15T05:42:44;24.10;;;20.60;;
13805;SDS011;6974;53.606;9.872;2023-04-15T05:45:12;22.47;;;19.67;;
13805;SDS011;6974;53.606;9.872;2023-04-15T05:47:41;24.67;;;20.20;;
13805;SDS011;6974;53.606;9.872;2023-04-15T05:50:08;21.97;;;19.03;;
13805;SDS011;6974;53.606;9.872;2023-04-15T05:52:36;22.50;;;19.57;;
13805;SDS011;6974;53.606;9.872;2023-04-15T05:55:05;21.90;;;19.47;;
13805;SDS011;6974;53.606;9.872;2023-04-15T05:57:32;24.90;;;19.40;;
13805;SDS011;6974;53.606;9.872;2023-04-15T05:59:59;24.60;;;20.97;;
13805;SDS011;6974;53.606;9.872;2023-04-15T06:02:28;23.17;;;19.23;;
13805;SDS011;6974;53.606;9.872;2023-04-15T06:04:55;25.17;;;20.33;;
13805;SDS011;6974;53.606;9.872;2023-04-15T06:07:23;24.10;;;20.20;;
13805;SDS011;6974;53.606;9.872;2023-04-15T06:09:50;24.70;;;19.07;;
13805;SDS011;6974;53.606;9.872;2023-04-15T06:12:17;26.80;;;21.40;;
13805;SDS011;6974;53.606;9.872;2023-04-15T06:14:44;26.27;;;22.03;;
13805;SDS011;6974;53.606;9.872;2023-04-15T06:17:12;28.83;;;22.93;;
13805;SDS011;6974;53.606;9.872;2023-04-15T06:19:43;26.03;;;21.27;;
13805;SDS011;6974;53.606;9.872;2023-04-15T06:22:10;27.27;;;23.20;;
13805;SDS011;6974;53.606;9.872;2023-04-15T06:24:37;26.37;;;21.70;;
13805;SDS011;6974;53.606;9.872;2023-04-15T06:27:04;30.50;;;24.97;;
13805;SDS011;6974;53.606;9.872;2023-04-15T06:29:31;30.40;;;24.13;;
13805;SDS011;6974;53.606;9.872;2023-04-15T06:31:58;28.27;;;23.57;;
13805;SDS011;6974;53.606;9.872;2023-04-15T06:34:25;30.97;;;24.30;;
13805;SDS011;6974;53.606;9.872;2023-04-15T06:36:54;30.63;;;24.50;;
13805;SDS011;6974;53.606;9.872;2023-04-15T06:39:21;29.73;;;24.90;;
13805;SDS011;6974;53.606;9.872;2023-04-15T06:41:48;33.67;;;26.43;;
13805;SDS011;6974;53.606;9.872;2023-04-15T06:44:16;33.43;;;27.03;;
13805;SDS011;6974;53.606;9.872;2023-04-15T06:46:43;34.03;;;26.73;;
13805;SDS011;6974;53.606;9.872;2023-04-15T06:49:10;31.83;;;26.10;;
13805;SDS011;6974;53.606;9.872;2023-04-15T06:51:37;33.57;;;27.17;;
13805;SDS011;6974;53.606;9.872;2023-04-15T06:54:06;34.87;;;28.33;;
13805;SDS011;6974;53.606;9.872;2023-04-15T06:56:33;34.37;;;27.80;;
13805;SDS011;6974;53.606;9.872;2023-04-15T06:59:00;33.20;;;27.80;;
13805;SDS011;6974;53.606;9.872;2023-04-15T07:01:27;33.40;;;26.30;;
13805;SDS011;6974;53.606;9.872;2023-04-15T07:03:54;34.00;;;27.33;;
13805;SDS011;6974;53.606;9.872;2023-04-15T07:06:22;36.90;;;29.20;;
13805;SDS011;6974;53.606;9.872;2023-04-15T07:08:50;34.93;;;28.47;;
13805;SDS011;6974;53.606;9.872;2023-04-15T07:11:18;35.23;;;26.83;;
13805;SDS011;6974;53.606;9.872;2023-04-15T07:13:46;34.90;;;26.93;;
13805;SDS011;6974;53.606;9.872;2023-04-15T07:16:13;37.03;;;28.93;;
13805;SDS011;6974;53.606;9.872;2023-04-15T07:18:39;37.70;;;28.60;;
13805;SDS011;6974;53.606;9.872;2023-04-15T07:21:08;36.00;;;28.40;;
13805;SDS011;6974;53.606;9.872;2023-04-15T07:23:38;38.33;;;30.43;;
13805;SDS011;6974;53.606;9.872;2023-04-15T07:26:10;36.03;;;28.50;;
13805;SDS011;6974;53.606;9.872;2023-04-15T07:28:39;39.23;;;30.77;;
13805;SDS011;6974;53.606;9.872;2023-04-15T07:31:06;36.97;;;29.63;;
13805;SDS011;6974;53.606;9.872;2023-04-15T07:33:33;37.50;;;29.67;;
13805;SDS011;6974;53.606;9.872;2023-04-15T07:36:01;38.87;;;31.23;;
13805;SDS011;6974;53.606;9.872;2023-04-15T07:38:28;39.50;;;31.10;;
13805;SDS011;6974;53.606;9.872;2023-04-15T07:40:55;36.63;;;30.03;;
13805;SDS011;6974;53.606;9.872;2023-04-15T07:43:22;35.77;;;27.47;;
13805;SDS011;6974;53.606;9.872;2023-04-15T07:45:50;41.67;;;30.33;;
13805;SDS011;6974;53.606;9.872;2023-04-15T07:48:17;38.57;;;29.60;;
13805;SDS011;6974;53.606;9.872;2023-04-15T07:50:44;39.60;;;31.10;;
13805;SDS011;6974;53.606;9.872;2023-04-15T07:53:11;38.63;;;30.43;;
13805;SDS011;6974;53.606;9.872;2023-04-15T07:55:38;38.97;;;30.10;;
13805;SDS011;6974;53.606;9.872;2023-04-15T07:58:05;38.23;;;30.73;;
13805;SDS011;6974;53.606;9.872;2023-04-15T08:00:33;38.67;;;31.00;;
13805;SDS011;6974;53.606;9.872;2023-04-15T08:03:02;36.60;;;29.30;;
13805;SDS011;6974;53.606;9.872;2023-04-15T08:05:28;38.50;;;31.63;;
13805;SDS011;6974;53.606;9.872;2023-04-15T08:07:55;38.80;;;30.10;;
13805;SDS011;6974;53.606;9.872;2023-04-15T08:10:23;40.20;;;31.57;;
13805;SDS011;6974;53.606;9.872;2023-04-15T08:12:50;37.47;;;30.80;;
13805;SDS011;6974;53.606;9.872;2023-04-15T08:15:18;39.27;;;32.10;;
13805;SDS011;6974;53.606;9.872;2023-04-15T08:17:45;39.63;;;31.93;;
13805;SDS011;6974;53.606;9.872;2023-04-15T08:20:14;41.13;;;33.87;;
13805;SDS011;6974;53.606;9.872;2023-04-15T08:22:44;43.53;;;34.33;;
13805;SDS011;6974;53.606;9.872;2023-04-15T08:25:16;46.50;;;35.53;;
13805;SDS011;6974;53.606;9.872;2023-04-15T08:27:44;43.63;;;32.77;;
13805;SDS011;6974;53.606;9.872;2023-04-15T08:30:11;45.40;;;34.57;;
13805;SDS011;6974;53.606;9.872;2023-04-15T08:32:42;41.00;;;32.77;;
13805;SDS011;6974;53.606;9.872;2023-04-15T08:35:11;41.73;;;32.93;;
13805;SDS011;6974;53.606;9.872;2023-04-15T08:37:40;42.10;;;32.97;;
13805;SDS011;6974;53.606;9.872;2023-04-15T08:40:08;41.57;;;32.73;;
13805;SDS011;6974;53.606;9.872;2023-04-15T08:42:40;43.33;;;34.13;;
13805;SDS011;6974;53.606;9.872;2023-04-15T08:45:10;42.13;;;33.53;;
13805;SDS011;6974;53.606;9.872;2023-04-15T08:47:38;44.53;;;34.50;;
13805;SDS011;6974;53.606;9.872;2023-04-15T08:50:08;42.40;;;33.47;;
13805;SDS011;6974;53.606;9.872;2023-04-15T08:52:37;41.53;;;32.33;;
13805;SDS011;6974;53.606;9.872;2023-04-15T08:55:05;42.70;;;33.60;;
13805;SDS011;6974;53.606;9.872;2023-04-15T08:57:34;45.80;;;36.13;;
13805;SDS011;6974;53.606;9.872;2023-04-15T09:00:04;43.00;;;34.90;;
13805;SDS011;6974;53.606;9.872;2023-04-15T09:02:33;43.23;;;33.67;;
13805;SDS011;6974;53.606;9.872;2023-04-15T09:05:01;42.50;;;34.17;;
13805;SDS011;6974;53.606;9.872;2023-04-15T09:07:32;43.97;;;33.77;;
13805;SDS011;6974;53.606;9.872;2023-04-15T09:10:01;43.47;;;34.37;;
13805;SDS011;6974;53.606;9.872;2023-04-15T09:12:30;43.40;;;33.80;;
13805;SDS011;6974;53.606;9.872;2023-04-15T09:14:59;43.13;;;34.70;;
13805;SDS011;6974;53.606;9.872;2023-04-15T09:17:27;44.23;;;35.57;;
13805;SDS011;6974;53.606;9.872;2023-04-15T09:20:06;44.43;;;35.43;;
13805;SDS011;6974;53.606;9.872;2023-04-15T09:22:35;42.40;;;34.30;;
13805;SDS011;6974;53.606;9.872;2023-04-15T09:25:04;45.43;;;33.97;;
13805;SDS011;6974;53.606;9.872;2023-04-15T09:27:52;43.87;;;33.60;;
13805;SDS011;6974;53.606;9.872;2023-04-15T09:30:20;46.63;;;35.70;;
13805;SDS011;6974;53.606;9.872;2023-04-15T09:32:49;49.50;;;37.37;;
13805;SDS011;6974;53.606;9.872;2023-04-15T09:35:20;49.93;;;37.80;;
13805;SDS011;6974;53.606;9.872;2023-04-15T09:37:48;53.27;;;40.03;;
13805;SDS011;6974;53.606;9.872;2023-04-15T11:18:58;20.30;;;18.23;;
13805;SDS011;6974;53.606;9.872;2023-04-15T11:21:25;19.03;;;17.13;;
13805;SDS011;6974;53.606;9.872;2023-04-15T11:23:53;22.07;;;19.80;;
13805;SDS011;6974;53.606;9.872;2023-04-15T11:26:24;19.37;;;17.40;;
13805;SDS011;6974;53.606;9.872;2023-04-15T11:28:52;18.70;;;16.73;;
13805;SDS011;6974;53.606;9.872;2023-04-15T11:31:20;16.00;;;14.30;;
13805;SDS011;6974;53.606;9.872;2023-04-15T11:33:53;13.63;;;12.33;;
13805;SDS011;6974;53.606;9.872;2023-04-15T11:36:24;13.57;;;12.13;;
13805;SDS011;6974;53.606;9.872;2023-04-15T11:38:52;13.27;;;11.87;;
13805;SDS011;6974;53.606;9.872;2023-04-15T11:41:22;13.30;;;12.03;;
13805;SDS011;6974;53.606;9.872;2023-04-15T11:43:49;14.20;;;11.60;;
13805;SDS011;6974;53.606;9.872;2023-04-15T11:46:16;13.10;;;11.73;;
13805;SDS011;6974;53.606;9.872;2023-04-15T11:48:44;13.17;;;11.77;;
13805;SDS011;6974;53.606;9.872;2023-04-15T11:51:12;11.70;;;10.27;;
13805;SDS011;6974;53.606;9.872;2023-04-15T11:53:42;10.67;;;9.67;;
13805;SDS011;6974;53.606;9.872;2023-04-15T11:56:10;11.27;;;10.00;;
13805;SDS011;6974;53.606;9.872;2023-04-15T11:58:43;13.13;;;10.93;;
13805;SDS011;6974;53.606;9.872;2023-04-15T12:01:10;12.13;;;10.77;;
13805;SDS011;6974;53.606;9.872;2023-04-15T12:03:38;11.70;;;10.60;;
13805;SDS011;6974;53.606;9.872;2023-04-15T12:06:11;11.30;;;10.20;;
13805;SDS011;6974;53.606;9.872;2023-04-15T12:08:57;11.07;;;9.97;;
13805;SDS011;6974;53.606;9.872;2023-04-15T12:11:27;11.87;;;10.67;;
13805;SDS011;6974;53.606;9.872;2023-04-15T12:13:58;11.57;;;10.47;;
13805;SDS011;6974;53.606;9.872;2023-04-15T12:16:29;12.00;;;10.90;;
13805;SDS011;6974;53.606;9.872;2023-04-15T12:18:57;11.97;;;10.77;;
13805;SDS011;6974;53.606;9.872;2023-04-15T12:21:26;11.90;;;10.70;;
13805;SDS011;6974;53.606;9.872;2023-04-15T12:24:02;12.47;;;11.27;;
13805;SDS011;6974;53.606;9.872;2023-04-15T12:26:30;11.67;;;9.73;;
13805;SDS011;6974;53.606;9.872;2023-04-15T12:29:01;10.67;;;9.67;;
13805;SDS011;6974;53.606;9.872;2023-04-15T12:31:29;10.90;;;9.87;;
13805;SDS011;6974;53.606;9.872;2023-04-15T12:33:58;10.77;;;9.70;;
13805;SDS011;6974;53.606;9.872;2023-04-15T12:36:26;11.03;;;10.03;;
13805;SDS011;6974;53.606;9.872;2023-04-15T12:38:54;10.70;;;9.60;;
13805;SDS011;6974;53.606;9.872;2023-04-15T12:41:23;11.00;;;9.90;;
13805;SDS011;6974;53.606;9.872;2023-04-15T12:43:51;11.00;;;9.87;;
13805;SDS011;6974;53.606;9.872;2023-04-15T12:46:18;12.00;;;10.77;;
13805;SDS011;6974;53.606;9.872;2023-04-15T12:48:46;10.93;;;9.90;;
13805;SDS011;6974;53.606;9.872;2023-04-15T12:51:13;11.50;;;10.40;;
13805;SDS011;6974;53.606;9.872;2023-04-15T12:53:40;11.47;;;10.30;;
13805;SDS011;6974;53.606;9.872;2023-04-15T12:56:07;11.70;;;10.60;;
13805;SDS011;6974;53.606;9.872;2023-04-15T12:58:36;11.87;;;10.67;;
13805;SDS011;6974;53.606;9.872;2023-04-15T13:01:04;11.67;;;10.47;;
13805;SDS011;6974;53.606;9.872;2023-04-15T13:03:32;11.50;;;10.30;;
13805;SDS011;6974;53.606;9.872;2023-04-15T13:05:59;12.10;;;11.00;;
13805;SDS011;6974;53.606;9.872;2023-04-15T13:08:28;12.27;;;11.07;;
13805;SDS011;6974;53.606;9.872;2023-04-15T13:10:55;12.70;;;11.53;;
13805;SDS011;6974;53.606;9.872;2023-04-15T13:13:23;11.63;;;10.53;;
13805;SDS011;6974;53.606;9.872;2023-04-15T13:15:51;11.63;;;10.40;;
13805;SDS011;6974;53.606;9.872;2023-04-15T13:18:18;11.80;;;10.77;;
13805;SDS011;6974;53.606;9.872;2023-04-15T13:20:47;12.60;;;11.40;;
13805;SDS011;6974;53.606;9.872;2023-04-15T13:23:14;12.83;;;11.63;;
13805;SDS011;6974;53.606;9.872;2023-04-15T13:25:42;13.07;;;11.77;;
13805;SDS011;6974;53.606;9.872;2023-04-15T13:28:09;13.07;;;11.87;;
13805;SDS011;6974;53.606;9.872;2023-04-15T13:30:37;12.90;;;11.60;;
13805;SDS011;6974;53.606;9.872;2023-04-15T13:33:05;11.60;;;10.47;;
13805;SDS011;6974;53.606;9.872;2023-04-15T13:35:32;11.20;;;10.10;;
13805;SDS011;6974;53.606;9.872;2023-04-15T13:38:00;11.33;;;10.33;;
13805;SDS011;6974;53.606;9.872;2023-04-15T13:40:27;10.73;;;9.73;;
13805;SDS011;6974;53.606;9.872;2023-04-15T13:42:54;11.73;;;10.53;;
13805;SDS011;6974;53.606;9.872;2023-04-15T13:45:24;11.73;;;10.60;;
13805;SDS011;6974;53.606;9.872;2023-04-15T13:47:51;12.40;;;11.10;;
13805;SDS011;6974;53.606;9.872;2023-04-15T13:50:20;9.83;;;8.97;;
13805;SDS011;6974;53.606;9.872;2023-04-15T13:52:47;10.33;;;9.33;;
13805;SDS011;6974;53.606;9.872;2023-04-15T13:55:14;9.80;;;8.80;;
13805;SDS011;6974;53.606;9.872;2023-04-15T13:57:41;10.00;;;8.97;;
13805;SDS011;6974;53.606;9.872;2023-04-15T14:00:10;8.90;;;8.10;;
13805;SDS011;6974;53.606;9.872;2023-04-15T14:02:39;9.73;;;8.20;;
13805;SDS011;6974;53.606;9.872;2023-04-15T14:05:07;10.00;;;8.80;;
13805;SDS011;6974;53.606;9.872;2023-04-15T14:07:37;12.57;;;8.13;;
13805;SDS011;6974;53.606;9.872;2023-04-15T14:10:05;9.33;;;8.40;;
13805;SDS011;6974;53.606;9.872;2023-04-15T14:12:33;10.33;;;9.33;;
13805;SDS011;6974;53.606;9.872;2023-04-15T14:15:00;11.03;;;10.03;;
13805;SDS011;6974;53.606;9.872;2023-04-15T14:17:29;10.27;;;9.27;;
13805;SDS011;6974;53.606;9.872;2023-04-15T14:19:56;10.13;;;9.13;;
13805;SDS011;6974;53.606;9.872;2023-04-15T14:22:23;10.27;;;9.27;;
13805;SDS011;6974;53.606;9.872;2023-04-15T14:24:52;9.60;;;8.70;;
13805;SDS011;6974;53.606;9.872;2023-04-15T14:27:21;8.93;;;8.03;;
13805;SDS011;6974;53.606;9.872;2023-04-15T14:29:49;9.33;;;8.53;;
13805;SDS011;6974;53.606;9.872;2023-04-15T14:32:17;9.40;;;8.50;;
13805;SDS011;6974;53.606;9.872;2023-04-15T14:34:44;9.80;;;8.90;;
13805;SDS011;6974;53.606;9.872;2023-04-15T14:37:11;10.10;;;9.10;;
13805;SDS011;6974;53.606;9.872;2023-04-15T14:39:38;9.97;;;8.97;;
13805;SDS011;6974;53.606;9.872;2023-04-15T14:42:07;11.23;;;10.13;;
13805;SDS011;6974;53.606;9.872;2023-04-15T14:44:35;11.90;;;10.70;;
13805;SDS011;6974;53.606;9.872;2023-04-15T14:47:02;11.77;;;10.57;;
13805;SDS011;6974;53.606;9.872;2023-04-15T14:49:29;10.83;;;9.80;;
13805;SDS011;6974;53.606;9.872;2023-04-15T14:51:57;11.53;;;10.37;;
13805;SDS011;6974;53.606;9.872;2023-04-15T14:54:24;10.47;;;9.47;;
13805;SDS011;6974;53.606;9.872;2023-04-15T14:56:53;10.40;;;9.40;;
13805;SDS011;6974;53.606;9.872;2023-04-15T14:59:21;11.63;;;10.53;;
13805;SDS011;6974;53.606;9.872;2023-04-15T15:01:49;12.17;;;10.87;;
13805;SDS011;6974;53.606;9.872;2023-04-15T15:04:17;10.63;;;9.63;;
13805;SDS011;6974;53.606;9.872;2023-04-15T15:06:45;11.27;;;9.77;;
13805;SDS011;6974;53.606;9.872;2023-04-15T15:09:13;10.63;;;9.57;;
13805;SDS011;6974;53.606;9.872;2023-04-15T15:11:40;10.63;;;9.70;;
13805;SDS011;6974;53.606;9.872;2023-04-15T15:14:07;10.60;;;9.60;;
13805;SDS011;6974;53.606;9.872;2023-04-15T15:16:36;11.50;;;9.83;;
13805;SDS011;6974;53.606;9.872;2023-04-15T15:19:06;10.87;;;9.87;;
13805;SDS011;6974;53.606;9.872;2023-04-15T15:21:34;10.07;;;9.00;;
13805;SDS011;6974;53.606;9.872;2023-04-15T15:24:01;10.30;;;9.40;;
13805;SDS011;6974;53.606;9.872;2023-04-15T15:26:29;10.33;;;9.43;;
13805;SDS011;6974;53.606;9.872;2023-04-15T15:28:56;9.80;;;8.90;;
13805;SDS011;6974;53.606;9.872;2023-04-15T15:31:24;10.03;;;9.03;;
13805;SDS011;6974;53.606;9.872;2023-04-15T15:33:52;9.50;;;8.60;;
13805;SDS011;6974;53.606;9.872;2023-04-15T15:36:19;10.03;;;8.93;;
13805;SDS011;6974;53.606;9.872;2023-04-15T15:38:48;11.27;;;9.37;;
13805;SDS011;6974;53.606;9.872;2023-04-15T15:41:15;10.33;;;9.33;;
13805;SDS011;6974;53.606;9.872;2023-04-15T15:43:45;10.67;;;9.27;;
13805;SDS011;6974;53.606;9.872;2023-04-15T15:46:12;16.67;;;15.10;;
13805;SDS011;6974;53.606;9.872;2023-04-15T15:48:41;13.50;;;12.10;;
13805;SDS011;6974;53.606;9.872;2023-04-15T15:51:10;10.63;;;9.20;;
13805;SDS011;6974;53.606;9.872;2023-04-15T15:53:37;9.73;;;8.77;;
13805;SDS011;6974;53.606;9.872;2023-04-15T15:56:04;10.03;;;9.03;;
13805;SDS011;6974;53.606;9.872;2023-04-15T15:58:32;11.00;;;9.83;;
13805;SDS011;6974;53.606;9.872;2023-04-15T16:00:59;11.40;;;10.17;;
13805;SDS011;6974;53.606;9.872;2023-04-15T16:03:26;11.70;;;10.60;;
13805;SDS011;6974;53.606;9.872;2023-04-15T16:05:54;12.33;;;11.13;;
13805;SDS011;6974;53.606;9.872;2023-04-15T16:08:23;12.13;;;10.97;;
13805;SDS011;6974;53.606;9.872;2023-04-15T16:10:50;11.07;;;10.07;;
13805;SDS011;6974;53.606;9.872;2023-04-15T16:13:17;11.67;;;10.57;;
13805;SDS011;6974;53.606;9.872;2023-04-15T16:15:44;10.93;;;10.03;;
13805;SDS011;6974;53.606;9.872;2023-04-15T16:18:11;11.70;;;10.70;;
13805;SDS011;6974;53.606;9.872;2023-04-15T16:20:38;10.60;;;9.60;;
13805;SDS011;6974;53.606;9.872;2023-04-15T16:23:06;11.47;;;10.27;;
13805;SDS011;6974;53.606;9.872;2023-04-15T16:25:38;11.30;;;10.30;;